sensor_id;sensor_type;location;lat;lon;timestamp;pressure;altitude;pressure_sealevel;temperature;humidity
68525;BME280;55524;51.380;13.372;2024-03-17T00:00:26;101287.44;;;3.23;100.00
68525;BME280;55524;51.380;13.372;2024-03-17T00:02:52;101297.81;;;3.15;100.00
68525;BME280;55524;51.380;13.372;2024-03-17T00:05:18;101288.28;;;3.20;100.00
68525;BME280;55524;51.380;13.372;2024-03-17T00:07:44;101285.66;;;3.20;100.00
68525;BME280;55524;51.380;13.372;2024-03-17T00:10:11;101289.97;;;3.09;100.00
68525;BME280;55524;51.380;13.372;2024-03-17T00:12:37;101291.69;;;3.06;100.00
68525;BME280;55524;51.380;13.372;2024-03-17T00:15:05;101290.81;;;3.07;100.00
68525;BME280;55524;51.380;13.372;2024-03-17T00:17:32;101285.56;;;3.04;100.00
68525;BME280;55524;51.380;13.372;2024-03-17T00:20:03;101283.75;;;2.93;100.00
68525;BME280;55524;51.380;13.372;2024-03-17T00:22:35;101280.28;;;2.96;100.00
68525;BME280;55524;51.380;13.372;2024-03-17T00:25:06;101277.69;;;3.01;100.00
68525;BME280;55524;51.380;13.372;2024-03-17T00:27:33;101275.97;;;2.98;100.00
68525;BME280;55524;51.380;13.372;2024-03-17T00:30:00;101285.50;;;2.94;100.00
68525;BME280;55524;51.380;13.372;2024-03-17T00:32:28;101287.22;;;2.92;100.00
68525;BME280;55524;51.380;13.372;2024-03-17T00:34:55;101282.84;;;2.93;100.00
68525;BME280;55524;51.380;13.372;2024-03-17T00:37:22;101282.84;;;2.93;100.00
68525;BME280;55524;51.380;13.372;2024-03-17T00:39:50;101284.59;;;2.91;100.00
68525;BME280;55524;51.380;13.372;2024-03-17T00:42:16;101276.75;;;2.88;100.00
68525;BME280;55524;51.380;13.372;2024-03-17T00:44:43;101281.03;;;2.78;100.00
68525;BME280;55524;51.380;13.372;2024-03-17T00:47:09;101292.38;;;2.85;100.00
68525;BME280;55524;51.380;13.372;2024-03-17T00:49:35;101282.78;;;2.81;100.00
68525;BME280;55524;51.380;13.372;2024-03-17T00:52:01;101285.34;;;2.75;100.00
68525;BME280;55524;51.380;13.372;2024-03-17T00:54:28;101282.69;;;2.71;100.00
68525;BME280;55524;51.380;13.372;2024-03-17T00:56:54;101277.47;;;2.70;100.00
68525;BME280;55524;51.380;13.372;2024-03-17T00:59:20;101282.59;;;2.61;100.00
68525;BME280;55524;51.380;13.372;2024-03-17T01:01:47;101286.97;;;2.63;100.00
68525;BME280;55524;51.380;13.372;2024-03-17T01:04:13;101285.19;;;2.55;100.00
68525;BME280;55524;51.380;13.372;2024-03-17T01:06:39;101282.53;;;2.50;100.00
68525;BME280;55524;51.380;13.372;2024-03-17T01:09:07;101286.88;;;2.51;100.00
68525;BME280;55524;51.380;13.372;2024-03-17T01:11:34;101285.06;;;2.44;100.00
68525;BME280;55524;51.380;13.372;2024-03-17T01:14:00;101275.44;;;2.37;100.00
68525;BME280;55524;51.380;13.372;2024-03-17T01:16:27;101282.34;;;2.30;100.00
68525;BME280;55524;51.380;13.372;2024-03-17T01:18:53;101291.81;;;2.25;100.00
68525;BME280;55524;51.380;13.372;2024-03-17T01:21:20;101298.81;;;2.28;100.00
68525;BME280;55524;51.380;13.372;2024-03-17T01:23:48;101295.34;;;2.29;100.00
68525;BME280;55524;51.380;13.372;2024-03-17T01:26:15;101292.81;;;2.35;100.00
68525;BME280;55524;51.380;13.372;2024-03-17T01:28:42;101286.72;;;2.36;100.00
68525;BME280;55524;51.380;13.372;2024-03-17T01:31:08;101289.28;;;2.31;100.00
68525;BME280;55524;51.380;13.372;2024-03-17T01:33:35;101286.72;;;2.36;100.00
68525;BME280;55524;51.380;13.372;2024-03-17T01:36:02;101288.50;;;2.41;100.00
68525;BME280;55524;51.380;13.372;2024-03-17T01:38:28;101288.50;;;2.40;100.00
68525;BME280;55524;51.380;13.372;2024-03-17T01:40:54;101290.16;;;2.33;100.00
68525;BME280;55524;51.380;13.372;2024-03-17T01:43:20;101290.16;;;2.30;100.00
68525;BME280;55524;51.380;13.372;2024-03-17T01:45:47;101286.66;;;2.28;100.00
68525;BME280;55524;51.380;13.372;2024-03-17T01:48:16;101287.50;;;2.27;100.00
68525;BME280;55524;51.380;13.372;2024-03-17T01:50:45;101287.53;;;2.29;100.00
68525;BME280;55524;51.380;13.372;2024-03-17T01:53:13;101284.88;;;2.26;100.00
68525;BME280;55524;51.380;13.372;2024-03-17T01:55:43;101286.66;;;2.27;100.00
68525;BME280;55524;51.380;13.372;2024-03-17T01:58:10;101285.72;;;2.23;100.00
68525;BME280;55524;51.380;13.372;2024-03-17T02:00:38;101284.06;;;2.30;100.00
68525;BME280;55524;51.380;13.372;2024-03-17T02:03:06;101289.22;;;2.22;100.00
68525;BME280;55524;51.380;13.372;2024-03-17T02:05:33;101286.56;;;2.19;100.00
68525;BME280;55524;51.380;13.372;2024-03-17T02:08:00;101284.78;;;2.16;100.00
68525;BME280;55524;51.380;13.372;2024-03-17T02:10:26;101292.69;;;2.22;100.00
68525;BME280;55524;51.380;13.372;2024-03-17T02:12:53;101290.09;;;2.26;100.00
68525;BME280;55524;51.380;13.372;2024-03-17T02:15:19;101286.59;;;2.24;100.00
68525;BME280;55524;51.380;13.372;2024-03-17T02:17:46;101285.69;;;2.18;100.00
68525;BME280;55524;51.380;13.372;2024-03-17T02:20:12;101282.06;;;2.06;100.00
68525;BME280;55524;51.380;13.372;2024-03-17T02:22:40;101284.59;;;2.00;100.00
68525;BME280;55524;51.380;13.372;2024-03-17T02:25:06;101288.09;;;1.99;100.00
68525;BME280;55524;51.380;13.372;2024-03-17T02:27:36;101283.59;;;1.88;100.00
68525;BME280;55524;51.380;13.372;2024-03-17T02:33:25;101294.03;;;1.88;100.00
68525;BME280;55524;51.380;13.372;2024-03-17T02:35:52;101290.59;;;1.91;100.00
68525;BME280;55524;51.380;13.372;2024-03-17T02:38:18;101288.00;;;1.91;100.00
68525;BME280;55524;51.380;13.372;2024-03-17T02:41:03;101290.56;;;1.89;100.00
68525;BME280;55524;51.380;13.372;2024-03-17T02:43:30;101286.16;;;1.84;100.00
68525;BME280;55524;51.380;13.372;2024-03-17T02:45:56;101286.06;;;1.78;100.00
68525;BME280;55524;51.380;13.372;2024-03-17T02:48:23;101288.72;;;1.79;100.00
68525;BME280;55524;51.380;13.372;2024-03-17T02:50:49;101287.75;;;1.72;100.00
68525;BME280;55524;51.380;13.372;2024-03-17T02:53:15;101296.41;;;1.70;100.00
68525;BME280;55524;51.380;13.372;2024-03-17T02:55:41;101292.91;;;1.68;100.00
68525;BME280;55524;51.380;13.372;2024-03-17T02:58:08;101288.53;;;1.65;100.00
68525;BME280;55524;51.380;13.372;2024-03-17T03:00:34;101288.56;;;1.68;100.00
68525;BME280;55524;51.380;13.372;2024-03-17T03:03:01;101286.94;;;1.75;100.00
68525;BME280;55524;51.380;13.372;2024-03-17T03:05:27;101285.97;;;1.68;100.00
68525;BME280;55524;51.380;13.372;2024-03-17T03:07:53;101287.66;;;1.65;100.00
68525;BME280;55524;51.380;13.372;2024-03-17T03:10:20;101286.88;;;1.70;100.00
68525;BME280;55524;51.380;13.372;2024-03-17T03:12:46;101292.00;;;1.66;100.00
68525;BME280;55524;51.380;13.372;2024-03-17T03:15:12;101290.25;;;1.63;100.00
68525;BME280;55524;51.380;13.372;2024-03-17T03:17:39;101288.47;;;1.62;100.00
68525;BME280;55524;51.380;13.372;2024-03-17T03:20:05;101291.19;;;1.68;100.00
68525;BME280;55524;51.380;13.372;2024-03-17T03:22:32;101296.41;;;1.68;100.00
68525;BME280;55524;51.380;13.372;2024-03-17T03:24:58;101304.31;;;1.76;100.00
68525;BME280;55524;51.380;13.372;2024-03-17T03:27:24;101292.97;;;1.72;100.00
68525;BME280;55524;51.380;13.372;2024-03-17T03:29:51;101291.19;;;1.68;100.00
68525;BME280;55524;51.380;13.372;2024-03-17T03:32:17;101294.66;;;1.67;100.00
68525;BME280;55524;51.380;13.372;2024-03-17T03:34:43;101285.94;;;1.65;100.00
68525;BME280;55524;51.380;13.372;2024-03-17T03:37:10;101294.69;;;1.70;100.00
68525;BME280;55524;51.380;13.372;2024-03-17T03:39:37;101293.69;;;1.61;100.00
68525;BME280;55524;51.380;13.372;2024-03-17T03:42:03;101292.78;;;1.57;100.00
68525;BME280;55524;51.380;13.372;2024-03-17T03:44:29;101293.63;;;1.55;100.00
68525;BME280;55524;51.380;13.372;2024-03-17T03:46:55;101283.16;;;1.52;100.00
68525;BME280;55524;51.380;13.372;2024-03-17T03:49:26;101299.56;;;1.46;100.00
68525;BME280;55524;51.380;13.372;2024-03-17T03:51:53;101289.06;;;1.40;100.00
68525;BME280;55524;51.380;13.372;2024-03-17T03:54:20;101300.34;;;1.39;100.00
68525;BME280;55524;51.380;13.372;2024-03-17T03:56:46;101297.66;;;1.33;100.00
68525;BME280;55524;51.380;13.372;2024-03-17T03:59:12;101297.59;;;1.28;100.00
68525;BME280;55524;51.380;13.372;2024-03-17T04:01:39;101290.56;;;1.22;100.00
68525;BME280;55524;51.380;13.372;2024-03-17T04:04:05;101292.28;;;1.20;100.00
68525;BME280;55524;51.380;13.372;2024-03-17T04:06:31;101293.09;;;1.18;100.00
68525;BME280;55524;51.380;13.372;2024-03-17T04:08:57;101302.75;;;1.27;100.00
68525;BME280;55524;51.380;13.372;2024-03-17T04:11:24;101301.88;;;1.23;100.00
68525;BME280;55524;51.380;13.372;2024-03-17T04:13:50;101309.56;;;1.15;100.00
68525;BME280;55524;51.380;13.372;2024-03-17T04:16:17;101306.09;;;1.18;100.00
68525;BME280;55524;51.380;13.372;2024-03-17T04:18:43;101307.72;;;1.10;100.00
68525;BME280;55524;51.380;13.372;2024-03-17T04:21:10;101308.63;;;1.12;100.00
68525;BME280;55524;51.380;13.372;2024-03-17T04:23:37;101312.84;;;1.05;100.00
68525;BME280;55524;51.380;13.372;2024-03-17T04:26:04;101317.09;;;0.98;100.00
68525;BME280;55524;51.380;13.372;2024-03-17T04:28:33;101321.59;;;1.10;100.00
68525;BME280;55524;51.380;13.372;2024-03-17T04:31:06;101319.09;;;1.15;100.00
68525;BME280;55524;51.380;13.372;2024-03-17T04:33:35;101326.78;;;1.07;100.00
68525;BME280;55524;51.380;13.372;2024-03-17T04:36:02;101318.00;;;1.01;100.00
68525;BME280;55524;51.380;13.372;2024-03-17T04:38:29;101324.88;;;0.95;100.00
68525;BME280;55524;51.380;13.372;2024-03-17T04:40:55;101322.16;;;0.91;100.00
68525;BME280;55524;51.380;13.372;2024-03-17T04:43:33;101326.47;;;0.89;100.00
68525;BME280;55524;51.380;13.372;2024-03-17T04:46:00;101327.28;;;0.85;100.00
68525;BME280;55524;51.380;13.372;2024-03-17T04:48:27;101319.41;;;0.82;100.00
68525;BME280;55524;51.380;13.372;2024-03-17T04:50:53;101326.34;;;0.80;100.00
68525;BME280;55524;51.380;13.372;2024-03-17T04:53:20;101330.53;;;0.71;100.00
68525;BME280;55524;51.380;13.372;2024-03-17T04:55:46;101328.63;;;0.63;100.00
68525;BME280;55524;51.380;13.372;2024-03-17T04:58:12;101327.75;;;0.61;100.00
68525;BME280;55524;51.380;13.372;2024-03-17T05:00:38;101326.88;;;0.62;100.00
68525;BME280;55524;51.380;13.372;2024-03-17T05:03:05;101331.28;;;0.64;100.00
68525;BME280;55524;51.380;13.372;2024-03-17T05:05:31;101332.88;;;0.56;100.00
68525;BME280;55524;51.380;13.372;2024-03-17T05:07:57;101334.63;;;0.59;100.00
68525;BME280;55524;51.380;13.372;2024-03-17T05:10:23;101332.81;;;0.53;100.00
68525;BME280;55524;51.380;13.372;2024-03-17T05:12:50;101333.59;;;0.49;100.00
68525;BME280;55524;51.380;13.372;2024-03-17T05:15:16;101337.06;;;0.49;100.00
68525;BME280;55524;51.380;13.372;2024-03-17T05:17:43;101337.88;;;0.45;100.00
68525;BME280;55524;51.380;13.372;2024-03-17T05:20:09;101336.94;;;0.43;100.00
68525;BME280;55524;51.380;13.372;2024-03-17T05:22:36;101340.44;;;0.44;100.00
68525;BME280;55524;51.380;13.372;2024-03-17T05:25:02;101334.25;;;0.39;100.00
68525;BME280;55524;51.380;13.372;2024-03-17T05:27:29;101345.53;;;0.39;100.00
68525;BME280;55524;51.380;13.372;2024-03-17T05:29:55;101345.53;;;0.38;100.00
68525;BME280;55524;51.380;13.372;2024-03-17T05:32:21;101353.34;;;0.39;100.00
68525;BME280;55524;51.380;13.372;2024-03-17T05:34:47;101356.84;;;0.41;100.00
68525;BME280;55524;51.380;13.372;2024-03-17T05:37:13;101359.44;;;0.41;100.00
68525;BME280;55524;51.380;13.372;2024-03-17T05:39:40;101353.41;;;0.42;100.00
68525;BME280;55524;51.380;13.372;2024-03-17T05:42:06;101359.53;;;0.47;100.00
68525;BME280;55524;51.380;13.372;2024-03-17T05:44:32;101359.69;;;0.54;100.00
68525;BME280;55524;51.380;13.372;2024-03-17T05:47:18;101358.09;;;0.62;100.00
68525;BME280;55524;51.380;13.372;2024-03-17T05:49:45;101359.97;;;0.69;100.00
68525;BME280;55524;51.380;13.372;2024-03-17T05:52:12;101353.16;;;0.76;100.00
68525;BME280;55524;51.380;13.372;2024-03-17T05:54:38;101354.16;;;0.85;100.00
68525;BME280;55524;51.380;13.372;2024-03-17T05:57:05;101360.25;;;0.86;100.00
68525;BME280;55524;51.380;13.372;2024-03-17T05:59:31;101363.78;;;0.89;100.00
68525;BME280;55524;51.380;13.372;2024-03-17T06:01:57;101370.72;;;0.90;100.00
68525;BME280;55524;51.380;13.372;2024-03-17T06:04:24;101371.66;;;0.94;100.00
68525;BME280;55524;51.380;13.372;2024-03-17T06:06:50;101369.09;;;0.95;100.00
68525;BME280;55524;51.380;13.372;2024-03-17T06:09:16;101379.56;;;1.00;100.00
68525;BME280;55524;51.380;13.372;2024-03-17T06:11:46;101375.31;;;1.04;100.00
68525;BME280;55524;51.380;13.372;2024-03-17T06:14:13;101379.72;;;1.08;100.00
68525;BME280;55524;51.380;13.372;2024-03-17T06:16:39;101388.44;;;1.11;100.00
68525;BME280;55524;51.380;13.372;2024-03-17T06:19:05;101374.50;;;1.08;100.00
68525;BME280;55524;51.380;13.372;2024-03-17T06:21:33;101395.31;;;1.08;100.00
68525;BME280;55524;51.380;13.372;2024-03-17T06:23:59;101398.94;;;1.16;100.00
68525;BME280;55524;51.380;13.372;2024-03-17T06:26:25;101393.78;;;1.20;100.00
68525;BME280;55524;51.380;13.372;2024-03-17T06:28:53;101396.53;;;1.30;100.00
68525;BME280;55524;51.380;13.372;2024-03-17T06:31:19;101398.50;;;1.44;100.00
68525;BME280;55524;51.380;13.372;2024-03-17T06:33:45;101400.44;;;1.56;100.00
68525;BME280;55524;51.380;13.372;2024-03-17T06:36:11;101402.41;;;1.72;100.00
68525;BME280;55524;51.380;13.372;2024-03-17T06:38:37;101393.88;;;1.86;100.00
68525;BME280;55524;51.380;13.372;2024-03-17T06:41:04;101393.16;;;1.94;100.00
68525;BME280;55524;51.380;13.372;2024-03-17T06:43:31;101393.31;;;2.10;100.00
68525;BME280;55524;51.380;13.372;2024-03-17T06:45:59;101393.56;;;2.28;100.00
68525;BME280;55524;51.380;13.372;2024-03-17T06:48:27;101391.13;;;2.45;100.00
68525;BME280;55524;51.380;13.372;2024-03-17T06:50:54;101388.75;;;2.62;100.00
68525;BME280;55524;51.380;13.372;2024-03-17T06:53:24;101391.53;;;2.82;100.00
68525;BME280;55524;51.380;13.372;2024-03-17T06:55:59;101389.88;;;2.93;100.00
68525;BME280;55524;51.380;13.372;2024-03-17T06:58:27;101383.09;;;3.10;100.00
68525;BME280;55524;51.380;13.372;2024-03-17T07:00:59;101385.81;;;3.23;100.00
68525;BME280;55524;51.380;13.372;2024-03-17T07:03:28;101389.41;;;3.37;100.00
68525;BME280;55524;51.380;13.372;2024-03-17T07:05:57;101400.84;;;3.54;100.00
68525;BME280;55524;51.380;13.372;2024-03-17T07:08:24;101390.41;;;3.59;100.00
68525;BME280;55524;51.380;13.372;2024-03-17T07:11:01;101392.31;;;3.83;100.00
68525;BME280;55524;51.380;13.372;2024-03-17T07:13:30;101395.84;;;3.92;100.00
68525;BME280;55524;51.380;13.372;2024-03-17T07:15:57;101397.66;;;4.07;100.00
68525;BME280;55524;51.380;13.372;2024-03-17T07:18:24;101395.97;;;4.23;100.00
68525;BME280;55524;51.380;13.372;2024-03-17T07:20:50;101394.31;;;4.40;100.00
68525;BME280;55524;51.380;13.372;2024-03-17T07:23:17;101390.88;;;4.58;100.00
68525;BME280;55524;51.380;13.372;2024-03-17T07:25:51;101385.69;;;4.81;100.00
68525;BME280;55524;51.380;13.372;2024-03-17T07:28:17;101357.59;;;6.01;100.00
68525;BME280;55524;51.380;13.372;2024-03-17T07:30:51;101300.66;;;7.37;100.00
68525;BME280;55524;51.380;13.372;2024-03-17T07:33:21;101275.00;;;7.56;100.00
68525;BME280;55524;51.380;13.372;2024-03-17T07:35:52;101267.81;;;8.35;100.00
68525;BME280;55524;51.380;13.372;2024-03-17T07:38:19;101272.44;;;8.19;100.00
68525;BME280;55524;51.380;13.372;2024-03-17T07:40:55;101256.38;;;8.41;100.00
68525;BME280;55524;51.380;13.372;2024-03-17T07:43:24;101277.63;;;8.25;100.00
68525;BME280;55524;51.380;13.372;2024-03-17T07:46:09;101288.00;;;7.70;100.00
68525;BME280;55524;51.380;13.372;2024-03-17T07:48:42;101303.03;;;7.58;100.00
68525;BME280;55524;51.380;13.372;2024-03-17T07:51:14;101314.94;;;7.90;100.00
68525;BME280;55524;51.380;13.372;2024-03-17T07:53:41;101308.28;;;7.58;100.00
68525;BME280;55524;51.380;13.372;2024-03-17T07:56:12;101314.16;;;7.82;100.00
68525;BME280;55524;51.380;13.372;2024-03-17T07:58:41;101315.06;;;7.79;100.00
68525;BME280;55524;51.380;13.372;2024-03-17T08:01:09;101309.81;;;7.78;100.00
68525;BME280;55524;51.380;13.372;2024-03-17T08:03:37;101308.78;;;7.91;100.00
68525;BME280;55524;51.380;13.372;2024-03-17T08:06:06;101312.00;;;8.14;100.00
68525;BME280;55524;51.380;13.372;2024-03-17T08:08:33;101304.91;;;8.18;100.00
68525;BME280;55524;51.380;13.372;2024-03-17T08:10:59;101287.31;;;8.22;100.00
68525;BME280;55524;51.380;13.372;2024-03-17T08:13:32;101297.84;;;8.22;100.00
68525;BME280;55524;51.380;13.372;2024-03-17T08:16:04;101285.34;;;8.39;100.00
68525;BME280;55524;51.380;13.372;2024-03-17T08:18:37;101272.00;;;8.50;100.00
68525;BME280;55524;51.380;13.372;2024-03-17T08:21:04;101282.03;;;8.83;100.00
68525;BME280;55524;51.380;13.372;2024-03-17T08:23:32;101268.94;;;8.77;100.00
68525;BME280;55524;51.380;13.372;2024-03-17T08:26:00;101287.72;;;8.57;100.00
68525;BME280;55524;51.380;13.372;2024-03-17T08:28:27;101274.28;;;8.73;100.00
68525;BME280;55524;51.380;13.372;2024-03-17T08:30:57;101269.72;;;8.82;100.00
68525;BME280;55524;51.380;13.372;2024-03-17T08:33:25;101272.66;;;8.66;100.00
68525;BME280;55524;51.380;13.372;2024-03-17T08:35:55;101252.72;;;8.49;100.00
68525;BME280;55524;51.380;13.372;2024-03-17T08:38:22;101250.94;;;8.50;100.00
68525;BME280;55524;51.380;13.372;2024-03-17T08:40:50;101256.13;;;8.54;100.00
68525;BME280;55524;51.380;13.372;2024-03-17T08:43:17;101230.28;;;8.78;100.00
68525;BME280;55524;51.380;13.372;2024-03-17T08:45:43;101234.84;;;8.68;99.37
68525;BME280;55524;51.380;13.372;2024-03-17T08:48:09;101230.69;;;8.53;100.00
68525;BME280;55524;51.380;13.372;2024-03-17T08:50:38;101255.34;;;8.49;100.00
68525;BME280;55524;51.380;13.372;2024-03-17T08:53:06;101233.72;;;8.83;99.85
68525;BME280;55524;51.380;13.372;2024-03-17T08:55:32;101228.16;;;9.00;97.88
68525;BME280;55524;51.380;13.372;2024-03-17T08:58:01;101265.16;;;8.40;100.00
68525;BME280;55524;51.380;13.372;2024-03-17T09:00:28;101282.41;;;8.59;100.00
68525;BME280;55524;51.380;13.372;2024-03-17T09:02:56;101257.94;;;8.52;100.00
68525;BME280;55524;51.380;13.372;2024-03-17T09:05:25;101281.19;;;8.21;100.00
68525;BME280;55524;51.380;13.372;2024-03-17T09:07:52;101268.09;;;8.17;100.00
68525;BME280;55524;51.380;13.372;2024-03-17T09:10:18;101267.22;;;8.16;100.00
68525;BME280;55524;51.380;13.372;2024-03-17T09:12:44;101284.84;;;8.09;100.00
68525;BME280;55524;51.380;13.372;2024-03-17T09:15:13;101277.41;;;7.74;100.00
68525;BME280;55524;51.380;13.372;2024-03-17T09:17:40;101276.47;;;7.80;100.00
68525;BME280;55524;51.380;13.372;2024-03-17T09:20:08;101278.22;;;7.79;100.00
68525;BME280;55524;51.380;13.372;2024-03-17T09:22:38;101275.50;;;7.87;100.00
68525;BME280;55524;51.380;13.372;2024-03-17T09:25:08;101257.19;;;7.78;100.00
68525;BME280;55524;51.380;13.372;2024-03-17T09:27:38;101259.72;;;7.87;100.00
68525;BME280;55524;51.380;13.372;2024-03-17T09:30:05;101259.63;;;7.93;100.00
68525;BME280;55524;51.380;13.372;2024-03-17T09:32:35;101241.84;;;8.12;100.00
68525;BME280;55524;51.380;13.372;2024-03-17T09:35:01;101250.13;;;7.84;100.00
68525;BME280;55524;51.380;13.372;2024-03-17T09:37:29;101251.06;;;7.76;100.00
68525;BME280;55524;51.380;13.372;2024-03-17T09:39:58;101261.03;;;7.52;100.00
68525;BME280;55524;51.380;13.372;2024-03-17T09:42:26;101244.31;;;7.58;100.00
68525;BME280;55524;51.380;13.372;2024-03-17T09:44:55;101235.19;;;7.85;100.00
68525;BME280;55524;51.380;13.372;2024-03-17T09:47:25;101218.19;;;8.07;100.00
68525;BME280;55524;51.380;13.372;2024-03-17T09:49:52;101206.88;;;8.02;100.00
68525;BME280;55524;51.380;13.372;2024-03-17T09:52:21;101213.56;;;8.25;100.00
68525;BME280;55524;51.380;13.372;2024-03-17T09:54:55;101171.56;;;8.71;92.83
68525;BME280;55524;51.380;13.372;2024-03-17T09:57:24;101151.41;;;9.14;87.45
68525;BME280;55524;51.380;13.372;2024-03-17T09:59:54;101133.66;;;9.64;81.14
68525;BME280;55524;51.380;13.372;2024-03-17T10:02:24;101168.19;;;9.53;87.16
68525;BME280;55524;51.380;13.372;2024-03-17T10:04:50;101143.31;;;8.78;82.58
68525;BME280;55524;51.380;13.372;2024-03-17T10:07:16;101163.72;;;8.68;86.43
68525;BME280;55524;51.380;13.372;2024-03-17T10:09:43;101130.16;;;9.21;79.51
68525;BME280;55524;51.380;13.372;2024-03-17T10:12:31;101133.47;;;8.88;79.58
68525;BME280;55524;51.380;13.372;2024-03-17T10:15:01;101132.84;;;9.20;78.84
68525;BME280;55524;51.380;13.372;2024-03-17T10:17:34;101128.84;;;9.81;77.80
68525;BME280;55524;51.380;13.372;2024-03-17T10:20:19;101111.38;;;10.13;73.61
68525;BME280;55524;51.380;13.372;2024-03-17T10:23:03;101101.38;;;10.27;71.45
68525;BME280;55524;51.380;13.372;2024-03-17T10:25:38;101081.25;;;10.55;67.10
68525;BME280;55524;51.380;13.372;2024-03-17T10:28:11;101081.19;;;10.23;64.96
68525;BME280;55524;51.380;13.372;2024-03-17T10:30:38;101105.56;;;9.98;66.45
68525;BME280;55524;51.380;13.372;2024-03-17T10:33:07;101088.28;;;10.21;65.35
68525;BME280;55524;51.380;13.372;2024-03-17T10:35:41;101102.06;;;9.98;67.29
68525;BME280;55524;51.380;13.372;2024-03-17T10:38:10;101105.47;;;10.03;66.16
68525;BME280;55524;51.380;13.372;2024-03-17T10:40:41;101101.13;;;10.00;65.92
68525;BME280;55524;51.380;13.372;2024-03-17T10:43:07;101091.72;;;9.89;65.05
68525;BME280;55524;51.380;13.372;2024-03-17T10:45:37;101107.91;;;10.10;66.66
68525;BME280;55524;51.380;13.372;2024-03-17T10:48:07;101117.44;;;10.16;68.84
68525;BME280;55524;51.380;13.372;2024-03-17T10:50:39;101100.91;;;10.45;68.03
68525;BME280;55524;51.380;13.372;2024-03-17T10:53:07;101085.94;;;10.44;64.17
68525;BME280;55524;51.380;13.372;2024-03-17T10:55:44;101072.44;;;10.55;63.56
68525;BME280;55524;51.380;13.372;2024-03-17T10:58:36;101060.63;;;11.29;61.80
68525;BME280;55524;51.380;13.372;2024-03-17T11:01:14;101048.59;;;11.75;61.09
68525;BME280;55524;51.380;13.372;2024-03-17T11:03:40;101057.59;;;11.97;61.90
68525;BME280;55524;51.380;13.372;2024-03-17T11:06:07;101043.09;;;11.81;59.57
68525;BME280;55524;51.380;13.372;2024-03-17T11:08:34;101078.13;;;10.40;63.25
68525;BME280;55524;51.380;13.372;2024-03-17T11:11:04;101098.94;;;9.82;65.81
68525;BME280;55524;51.380;13.372;2024-03-17T11:13:32;101109.16;;;9.58;68.62
68525;BME280;55524;51.380;13.372;2024-03-17T11:15:59;101116.97;;;9.63;69.97
68525;BME280;55524;51.380;13.372;2024-03-17T11:18:33;101126.41;;;9.33;71.99
68525;BME280;55524;51.380;13.372;2024-03-17T11:21:17;101106.16;;;9.35;69.03
68525;BME280;55524;51.380;13.372;2024-03-17T11:23:56;101117.28;;;9.07;71.11
68525;BME280;55524;51.380;13.372;2024-03-17T11:26:33;101128.03;;;8.97;71.59
68525;BME280;55524;51.380;13.372;2024-03-17T11:29:02;101117.81;;;8.78;71.42
68525;BME280;55524;51.380;13.372;2024-03-17T11:31:37;101114.13;;;8.89;70.98
68525;BME280;55524;51.380;13.372;2024-03-17T11:34:25;101088.94;;;9.17;66.20
68525;BME280;55524;51.380;13.372;2024-03-17T11:36:56;101064.97;;;9.28;63.22
68525;BME280;55524;51.380;13.372;2024-03-17T11:40:01;101065.25;;;9.14;63.17
68525;BME280;55524;51.380;13.372;2024-03-17T11:42:29;101072.28;;;9.15;64.84
68525;BME280;55524;51.380;13.372;2024-03-17T11:45:00;101077.03;;;9.38;65.99
68525;BME280;55524;51.380;13.372;2024-03-17T11:47:34;101093.91;;;9.71;68.22
68525;BME280;55524;51.380;13.372;2024-03-17T11:50:03;101107.91;;;9.73;71.41
68525;BME280;55524;51.380;13.372;2024-03-17T11:52:30;101093.00;;;9.32;68.27
68525;BME280;55524;51.380;13.372;2024-03-17T11:54:56;101102.88;;;9.24;69.92
68525;BME280;55524;51.380;13.372;2024-03-17T11:57:25;101106.72;;;9.07;71.54
68525;BME280;55524;51.380;13.372;2024-03-17T11:59:54;101106.84;;;9.01;72.48
68525;BME280;55524;51.380;13.372;2024-03-17T12:02:26;101106.94;;;8.97;72.35
68525;BME280;55524;51.380;13.372;2024-03-17T12:05:02;101087.69;;;9.33;70.06
68525;BME280;55524;51.380;13.372;2024-03-17T12:07:29;101084.50;;;9.19;69.17
68525;BME280;55524;51.380;13.372;2024-03-17T12:09:56;101068.72;;;9.56;67.46
68525;BME280;55524;51.380;13.372;2024-03-17T12:12:25;101085.41;;;9.58;68.27
68525;BME280;55524;51.380;13.372;2024-03-17T12:15:01;101082.16;;;9.46;70.85
68525;BME280;55524;51.380;13.372;2024-03-17T12:17:28;101085.34;;;9.60;71.90
68525;BME280;55524;51.380;13.372;2024-03-17T12:19:55;101071.19;;;9.64;67.56
68525;BME280;55524;51.380;13.372;2024-03-17T12:22:26;101070.31;;;9.64;67.53
68525;BME280;55524;51.380;13.372;2024-03-17T12:24:55;101090.50;;;9.26;71.80
68525;BME280;55524;51.380;13.372;2024-03-17T12:27:23;101091.66;;;9.13;71.70
68525;BME280;55524;51.380;13.372;2024-03-17T12:29:52;101080.41;;;9.83;69.36
68525;BME280;55524;51.380;13.372;2024-03-17T12:32:25;101063.84;;;10.79;67.21
68525;BME280;55524;51.380;13.372;2024-03-17T12:34:52;101034.81;;;11.07;61.79
68525;BME280;55524;51.380;13.372;2024-03-17T12:37:26;101024.84;;;11.17;60.61
68525;BME280;55524;51.380;13.372;2024-03-17T12:40:00;101008.28;;;11.11;58.07
68525;BME280;55524;51.380;13.372;2024-03-17T12:42:28;101005.47;;;10.56;59.21
68525;BME280;55524;51.380;13.372;2024-03-17T12:44:59;100990.38;;;11.19;57.98
68525;BME280;55524;51.380;13.372;2024-03-17T12:47:31;100986.88;;;11.18;57.21
68525;BME280;55524;51.380;13.372;2024-03-17T12:50:01;100978.84;;;11.49;57.27